Time,TemperatureF,DewpointF,PressureIn,WindDirection,WindDirectionDegrees,WindSpeedMPH,WindSpeedGustMPH,Humidity,HourlyPrecipIn,Conditions,Clouds,dailyrainin,SoftwareType,DateUTC
2013-02-25 00:00:00,69.9,69.0,29.89,ESE,119,0.2,3.5,97,0.00,BKN,,0.00,WeatherDisplay:10.37,2013-02-25 05:00:00,
2013-02-25 00:05:00,69.8,68.9,29.90,ESE,108,0.7,3.5,97,0.00,BKN,,0.00,WeatherDisplay:10.37,2013-02-25 05:05:00,
2013-02-25 00:10:00,69.9,69.0,29.89,SE,126,1.3,3.5,97,0.00,BKN,,0.00,WeatherDisplay:10.37,2013-02-25 05:10:00,
2013-02-25 00:15:00,70.0,69.1,29.89,ESE,107,1.6,3.5,97,0.00,BKN,,0.00,WeatherDisplay:10.37,2013-02-25 05:15:00,
2013-02-25 00:20:00,70.0,69.1,29.88,ESE,120,3.4,6.0,97,0.00,BKN,,0.00,WeatherDisplay:10.37,2013-02-25 05:20:00,
2013-02-25 00:25:00,70.0,69.1,29.88,SSE,148,1.1,2.3,97,0.00,BKN,,0.00,WeatherDisplay:10.37,2013-02-25 05:25:00,
2013-02-25 00:30:00,70.0,69.1,29.88,ESE,121,1.4,3.5,97,0.00,BKN,,0.00,WeatherDisplay:10.37,2013-02-25 05:30:00,
2013-02-25 00:35:00,70.1,69.2,29.88,SE,127,1.6,4.0,97,0.00,BKN,,0.00,WeatherDisplay:10.37,2013-02-25 05:35:00,
2013-02-25 00:40:00,70.1,69.2,29.88,SE,143,1.0,2.3,97,0.00,BKN,,0.00,WeatherDisplay:10.37,2013-02-25 05:40:00,
2013-02-25 00:45:00,70.0,69.1,29.88,SSE,162,1.1,2.3,97,0.00,BKN,,0.00,WeatherDisplay:10.37,2013-02-25 05:45:00,
2013-02-25 00:50:00,70.1,69.5,29.88,SE,129,0.6,2.3,98,0.00,BKN,,0.00,WeatherDisplay:10.37,2013-02-25 05:50:00,
2013-02-25 00:55:00,70.0,69.1,29.88,SSE,155,2.0,3.5,97,0.00,BKN,,0.00,WeatherDisplay:10.37,2013-02-25 05:55:00,
2013-02-25 01:00:00,70.0,69.4,29.89,SSE,150,2.7,3.5,98,0.00,BKN,,0.00,WeatherDisplay:10.37,2013-02-25 06:00:00,
2013-02-25 01:05:00,69.9,69.3,29.89,SE,140,1.8,3.5,98,0.00,BKN,,0.00,WeatherDisplay:10.37,2013-02-25 06:05:00,
2013-02-25 01:10:00,69.9,69.3,29.89,ESE,121,2.6,3.5,98,0.00,BKN,,0.00,WeatherDisplay:10.37,2013-02-25 06:10:00,
2013-02-25 01:15:00,69.8,69.2,29.88,SSE,162,1.4,3.5,98,0.00,,,0.00,WeatherDisplay:10.37,2013-02-25 06:15:00,
2013-02-25 01:20:00,69.7,69.1,29.87,SE,124,2.4,3.5,98,0.00,,,0.00,WeatherDisplay:10.37,2013-02-25 06:20:00,
2013-02-25 01:25:00,69.7,69.1,29.86,SE,130,1.8,3.5,98,0.00,,,0.00,WeatherDisplay:10.37,2013-02-25 06:25:00,
2013-02-25 01:30:00,69.6,69.0,29.87,SE,130,2.0,3.5,98,0.00,,,0.00,WeatherDisplay:10.37,2013-02-25 06:30:00,
2013-02-25 01:35:00,69.6,69.0,29.87,SSE,160,1.0,3.5,98,0.00,,,0.00,WeatherDisplay:10.37,2013-02-25 06:35:00,
2013-02-25 01:40:00,69.6,69.0,29.87,East,95,1.5,3.5,98,0.00,,,0.00,WeatherDisplay:10.37,2013-02-25 06:40:00,
2013-02-25 01:45:00,69.6,69.0,29.87,SE,131,1.2,3.5,98,0.00,,,0.00,WeatherDisplay:10.37,2013-02-25 06:45:00,
2013-02-25 01:50:00,69.5,68.9,29.87,SSE,158,0.9,2.3,98,0.00,,,0.00,WeatherDisplay:10.37,2013-02-25 06:50:00,
2013-02-25 01:55:00,69.6,69.0,29.87,SE,134,0.0,0.0,98,0.00,,,0.00,WeatherDisplay:10.37,2013-02-25 06:55:00,
2013-02-25 02:00:00,69.5,68.9,29.87,ESE,121,0.0,0.0,98,0.00,,,0.00,WeatherDisplay:10.37,2013-02-25 07:00:00,
2013-02-25 02:05:00,69.6,69.0,29.87,SE,125,0.0,0.0,98,0.00,,,0.00,WeatherDisplay:10.37,2013-02-25 07:05:00,
2013-02-25 02:10:00,69.6,69.0,29.86,SE,125,0.1,1.1,98,0.00,,,0.00,WeatherDisplay:10.37,2013-02-25 07:10:00,
2013-02-25 02:15:00,69.6,69.0,29.87,SE,134,0.0,0.0,98,0.00,,,0.00,WeatherDisplay:10.37,2013-02-25 07:15:00,
2013-02-25 02:20:00,69.7,69.1,29.87,ESE,119,0.5,1.1,98,0.00,,,0.00,WeatherDisplay:10.37,2013-02-25 07:20:00,
2013-02-25 02:25:00,69.7,69.1,29.87,ESE,121,0.0,1.1,98,0.00,,,0.00,WeatherDisplay:10.37,2013-02-25 07:25:00,
2013-02-25 02:30:00,69.7,69.1,29.86,ESE,109,0.1,1.1,98,0.00,,,0.00,WeatherDisplay:10.37,2013-02-25 07:30:00,
2013-02-25 02:35:00,69.6,69.0,29.86,ESE,110,0.0,0.0,98,0.00,,,0.00,WeatherDisplay:10.37,2013-02-25 07:35:00,
2013-02-25 02:40:00,69.5,68.9,29.86,ESE,117,0.0,0.0,98,0.00,,,0.00,WeatherDisplay:10.37,2013-02-25 07:40:00,
2013-02-25 02:45:00,69.4,68.8,29.85,East,96,0.9,0.0,98,0.00,,,0.00,WeatherDisplay:10.37,2013-02-25 07:45:00,
2013-02-25 02:50:00,69.4,68.8,29.85,ESE,117,0.2,1.1,98,0.00,,,0.00,WeatherDisplay:10.37,2013-02-25 07:50:00,
2013-02-25 02:55:00,69.4,68.8,29.84,East,95,0.0,1.1,98,0.00,,,0.00,WeatherDisplay:10.37,2013-02-25 07:55:00,
2013-02-25 03:00:00,69.4,68.8,29.84,East,94,0.7,1.0,98,0.00,,,0.00,WeatherDisplay:10.37,2013-02-25 08:00:00,
2013-02-25 03:05:00,69.4,68.8,29.84,East,98,0.0,2.3,98,0.00,,,0.00,WeatherDisplay:10.37,2013-02-25 08:05:00,
2013-02-25 03:10:00,69.1,68.5,29.85,ENE,77,0.9,2.3,98,0.00,,,0.00,WeatherDisplay:10.37,2013-02-25 08:10:00,
2013-02-25 03:15:00,68.8,68.2,29.84,ESE,113,0.4,1.1,98,0.00,,,0.00,WeatherDisplay:10.37,2013-02-25 08:15:00,
2013-02-25 03:20:00,68.6,68.0,29.85,East,94,0.4,3.5,98,0.00,,,0.00,WeatherDisplay:10.37,2013-02-25 08:20:00,
2013-02-25 03:25:00,68.3,67.7,29.84,ESE,104,0.1,1.1,98,0.00,,,0.00,WeatherDisplay:10.37,2013-02-25 08:25:00,
2013-02-25 03:30:00,68.1,67.5,29.84,ESE,102,0.0,0.0,98,0.00,,,0.00,WeatherDisplay:10.37,2013-02-25 08:30:00,
2013-02-25 03:35:00,68.0,67.4,29.83,ESE,104,0.0,1.1,98,0.00,,,0.00,WeatherDisplay:10.37,2013-02-25 08:35:00,
2013-02-25 03:40:00,67.8,67.2,29.83,ESE,102,0.2,1.1,98,0.00,,,0.00,WeatherDisplay:10.37,2013-02-25 08:40:00,
2013-02-25 03:45:00,67.7,67.1,29.83,SE,126,0.4,2.3,98,0.00,,,0.00,WeatherDisplay:10.37,2013-02-25 08:45:00,
2013-02-25 03:50:00,67.5,66.9,29.83,East,97,0.2,2.3,98,0.00,,,0.00,WeatherDisplay:10.37,2013-02-25 08:50:00,
2013-02-25 03:55:00,67.4,66.8,29.83,ESE,108,0.2,1.0,98,0.00,,,0.00,WeatherDisplay:10.37,2013-02-25 08:55:00,
2013-02-25 04:00:00,67.4,66.8,29.84,SSE,148,0.0,1.1,98,0.00,,,0.00,WeatherDisplay:10.37,2013-02-25 09:00:00,
2013-02-25 04:05:00,67.5,66.9,29.84,East,95,0.2,1.0,98,0.00,,,0.00,WeatherDisplay:10.37,2013-02-25 09:05:00,
2013-02-25 04:11:00,67.5,66.9,29.84,East,91,0.2,3.5,98,0.00,,,0.00,WeatherDisplay:10.37,2013-02-25 09:11:00,
2013-02-25 04:16:00,67.5,66.9,29.83,ESE,102,0.1,2.3,98,0.00,,,0.00,WeatherDisplay:10.37,2013-02-25 09:16:00,
2013-02-25 04:21:00,67.3,66.7,29.83,ESE,111,0.3,0.0,98,0.00,,,0.00,WeatherDisplay:10.37,2013-02-25 09:21:00,
2013-02-25 04:26:00,67.1,66.5,29.83,ESE,103,0.4,2.3,98,0.00,,,0.00,WeatherDisplay:10.37,2013-02-25 09:26:00,
2013-02-25 04:31:00,66.9,66.3,29.82,ESE,111,0.1,1.1,98,0.00,,,0.00,WeatherDisplay:10.37,2013-02-25 09:31:00,
2013-02-25 04:36:00,66.9,66.3,29.82,SE,124,0.4,3.5,98,0.00,,,0.00,WeatherDisplay:10.37,2013-02-25 09:36:00,
2013-02-25 04:41:00,66.9,66.3,29.82,East,98,0.4,2.3,98,0.00,,,0.00,WeatherDisplay:10.37,2013-02-25 09:41:00,
2013-02-25 04:46:00,66.9,66.3,29.82,ESE,115,0.7,2.3,98,0.00,,,0.00,WeatherDisplay:10.37,2013-02-25 09:46:00,
2013-02-25 04:51:00,66.9,66.3,29.83,SE,134,1.0,3.5,98,0.00,,,0.00,WeatherDisplay:10.37,2013-02-25 09:51:00,
2013-02-25 04:56:00,66.9,66.3,29.83,SE,134,1.4,2.3,98,0.00,,,0.00,WeatherDisplay:10.37,2013-02-25 09:56:00,
2013-02-25 05:01:00,66.8,66.2,29.83,ESE,112,1.8,3.5,98,0.00,,,0.00,WeatherDisplay:10.37,2013-02-25 10:01:00,
2013-02-25 05:06:00,66.7,66.1,29.83,SE,134,1.1,3.5,98,0.00,,,0.00,WeatherDisplay:10.37,2013-02-25 10:06:00,
2013-02-25 07:02:00,66.8,66.5,29.86,ESE,120,1.7,6.9,99,0.01,CLR,,0.01,WeatherDisplay:10.37,2013-02-25 12:02:00,
2013-02-25 07:07:00,66.8,66.5,29.86,South,170,2.1,3.5,99,0.01,,,0.01,WeatherDisplay:10.37,2013-02-25 12:07:00,
2013-02-25 07:12:00,66.9,66.6,29.86,SE,134,1.4,2.3,99,0.01,FEW,,0.01,WeatherDisplay:10.37,2013-02-25 12:12:00,
2013-02-25 07:18:00,66.8,66.5,29.86,ESE,117,1.2,3.5,99,0.01,FEW,,0.01,WeatherDisplay:10.37,2013-02-25 12:18:00,
2013-02-25 07:23:00,66.8,66.5,29.86,SE,130,0.3,1.1,99,0.01,FEW,,0.01,WeatherDisplay:10.37,2013-02-25 12:23:00,
2013-02-25 07:28:00,66.8,66.5,29.86,SE,127,1.9,3.5,99,0.01,FEW,,0.01,WeatherDisplay:10.37,2013-02-25 12:28:00,
2013-02-25 07:33:00,66.7,66.4,29.86,SSE,160,0.6,3.5,99,0.01,FEW,,0.01,WeatherDisplay:10.37,2013-02-25 12:33:00,
2013-02-25 07:38:00,66.8,66.5,29.86,SE,124,2.5,2.5,99,0.01,FEW,,0.01,WeatherDisplay:10.37,2013-02-25 12:38:00,
2013-02-25 07:43:00,66.7,66.4,29.85,SE,133,2.9,4.6,99,0.01,OVC,,0.01,WeatherDisplay:10.37,2013-02-25 12:43:00,
2013-02-25 07:48:00,66.8,66.5,29.85,SE,139,3.2,6.9,99,0.01,OVC,,0.01,WeatherDisplay:10.37,2013-02-25 12:48:00,
2013-02-25 07:53:00,66.7,66.4,29.86,SE,128,2.4,4.6,99,0.01,OVC,,0.01,WeatherDisplay:10.37,2013-02-25 12:53:00,
2013-02-25 07:58:00,66.8,66.5,29.86,SE,128,2.4,3.5,99,0.01,OVC,,0.01,WeatherDisplay:10.37,2013-02-25 12:58:00,
2013-02-25 08:03:00,66.8,66.5,29.86,ESE,122,1.3,3.5,99,0.00,OVC,,0.01,WeatherDisplay:10.37,2013-02-25 13:03:00,
2013-02-25 08:08:00,66.8,66.5,29.86,ESE,120,2.4,5.8,99,0.00,OVC,,0.01,WeatherDisplay:10.37,2013-02-25 13:08:00,
2013-02-25 08:13:00,66.9,66.6,29.86,ESE,122,1.5,2.0,99,0.00,OVC,,0.01,WeatherDisplay:10.37,2013-02-25 13:13:00,
2013-02-25 08:18:00,67.0,66.7,29.86,SE,125,0.9,4.0,99,0.00,OVC,,0.01,WeatherDisplay:10.37,2013-02-25 13:18:00,
2013-02-25 08:23:00,67.2,66.9,29.86,ESE,119,2.2,3.0,99,0.00,OVC,,0.01,WeatherDisplay:10.37,2013-02-25 13:23:00,
2013-02-25 08:28:00,67.3,67.0,29.86,SE,130,3.3,4.6,99,0.00,OVC,,0.01,WeatherDisplay:10.37,2013-02-25 13:28:00,
2013-02-25 08:33:00,67.7,67.4,29.86,South,173,1.0,3.5,99,0.00,OVC,,0.01,WeatherDisplay:10.37,2013-02-25 13:33:00,
2013-02-25 08:38:00,68.3,68.0,29.87,ESE,122,0.6,2.3,99,0.00,OVC,,0.01,WeatherDisplay:10.37,2013-02-25 13:38:00,
2013-02-25 08:43:00,68.7,68.4,29.87,SSE,166,2.1,4.6,99,0.00,OVC,,0.01,WeatherDisplay:10.37,2013-02-25 13:43:00,
2013-02-25 08:48:00,69.0,68.4,29.87,SE,131,1.1,3.5,98,0.00,OVC,,0.01,WeatherDisplay:10.37,2013-02-25 13:48:00,
2013-02-25 08:53:00,69.3,68.4,29.87,SSE,160,0.6,3.5,97,0.00,FEW,,0.01,WeatherDisplay:10.37,2013-02-25 13:53:00,
2013-02-25 08:59:00,69.9,68.7,29.87,SE,134,3.4,5.8,96,0.00,FEW,,0.01,WeatherDisplay:10.37,2013-02-25 13:59:00,
2013-02-25 09:04:00,70.8,69.3,29.87,ESE,104,1.3,3.5,95,0.00,CLR,,0.01,WeatherDisplay:10.37,2013-02-25 14:04:00,
2013-02-25 09:10:00,71.6,69.2,29.87,ESE,117,2.3,7.0,92,0.00,CLR,,0.01,WeatherDisplay:10.37,2013-02-25 14:10:00,
2013-02-25 09:15:00,72.3,68.9,29.87,SE,136,3.8,6.0,89,0.00,CLR,,0.01,WeatherDisplay:10.37,2013-02-25 14:15:00,
2013-02-25 09:20:00,72.8,69.4,29.87,ESE,104,0.9,2.3,89,0.00,CLR,,0.01,WeatherDisplay:10.37,2013-02-25 14:20:00,
2013-02-25 09:25:00,73.6,69.2,29.87,SSE,158,3.7,6.0,86,0.00,CLR,,0.01,WeatherDisplay:10.37,2013-02-25 14:25:00,
2013-02-25 09:30:00,73.7,68.9,29.88,ESE,103,3.3,5.8,85,0.00,CLR,,0.01,WeatherDisplay:10.37,2013-02-25 14:30:00,
2013-02-25 09:35:00,73.7,69.2,29.88,SSE,163,1.1,3.5,86,0.00,CLR,,0.01,WeatherDisplay:10.37,2013-02-25 14:35:00,
2013-02-25 09:40:00,73.7,68.6,29.88,East,94,2.9,6.9,84,0.00,CLR,,0.01,WeatherDisplay:10.37,2013-02-25 14:40:00,
2013-02-25 09:45:00,73.7,68.9,29.87,SSE,158,1.2,2.3,85,0.00,CLR,,0.01,WeatherDisplay:10.37,2013-02-25 14:45:00,
2013-02-25 09:50:00,74.3,69.1,29.87,ESE,123,1.8,3.5,84,0.00,CLR,,0.01,WeatherDisplay:10.37,2013-02-25 14:50:00,
2013-02-25 09:55:00,75.1,69.2,29.87,SSE,156,3.3,7.0,82,0.00,CLR,,0.01,WeatherDisplay:10.37,2013-02-25 14:55:00,
2013-02-25 10:00:00,75.4,69.2,29.87,SSE,157,3.5,6.9,81,0.00,CLR,,0.01,WeatherDisplay:10.37,2013-02-25 15:00:00,
2013-02-25 10:05:00,75.8,69.2,29.86,ESE,117,4.6,6.9,80,0.00,CLR,,0.01,WeatherDisplay:10.37,2013-02-25 15:05:00,
2013-02-25 11:00:00,76.6,69.6,29.85,ESE,120,6.1,14.0,79,0.00,CLR,,0.01,WeatherDisplay:10.37,2013-02-25 16:00:00,
2013-02-25 11:05:00,76.7,69.7,29.85,SSE,162,4.5,5.8,79,0.00,CLR,,0.01,WeatherDisplay:10.37,2013-02-25 16:05:00,
2013-02-25 11:10:00,76.8,69.8,29.85,ESE,121,3.7,7.0,79,0.00,CLR,,0.01,WeatherDisplay:10.37,2013-02-25 16:10:00,
2013-02-25 11:15:00,77.5,70.5,29.85,SSE,160,5.1,5.8,79,0.00,CLR,,0.01,WeatherDisplay:10.37,2013-02-25 16:15:00,
2013-02-25 11:20:00,78.1,70.3,29.85,South,179,5.7,9.2,77,0.00,CLR,,0.01,WeatherDisplay:10.37,2013-02-25 16:20:00,
2013-02-25 11:25:00,78.2,70.4,29.85,SW,230,4.1,5.8,77,0.00,CLR,,0.01,WeatherDisplay:10.37,2013-02-25 16:25:00,
2013-02-25 11:30:00,77.8,70.4,29.85,South,186,3.3,5.8,78,0.00,CLR,,0.01,WeatherDisplay:10.37,2013-02-25 16:30:00,
2013-02-25 11:35:00,77.7,70.3,29.85,South,191,4.7,9.0,78,0.00,CLR,,0.01,WeatherDisplay:10.37,2013-02-25 16:35:00,
2013-02-25 11:40:00,77.5,70.5,29.84,SSW,207,2.8,5.0,79,0.00,CLR,,0.01,WeatherDisplay:10.37,2013-02-25 16:40:00,
2013-02-25 11:45:00,77.8,70.4,29.84,South,183,4.2,6.9,78,0.00,CLR,,0.01,WeatherDisplay:10.37,2013-02-25 16:45:00,
2013-02-25 11:50:00,78.2,70.8,29.84,ESE,122,4.8,6.9,78,0.00,CLR,,0.01,WeatherDisplay:10.37,2013-02-25 16:50:00,
2013-02-25 16:59:00,77.1,72.6,29.77,ESE,119,7.2,21.0,86,0.00,CLR,,0.01,WeatherDisplay:10.37,2013-02-25 21:59:00,
2013-02-25 17:04:00,77.0,72.5,29.77,South,172,6.8,10.4,86,0.00,CLR,,0.01,WeatherDisplay:10.37,2013-02-25 22:04:00,
2013-02-25 17:09:00,76.8,72.6,29.77,South,177,5.3,7.0,87,0.00,CLR,,0.01,WeatherDisplay:10.37,2013-02-25 22:09:00,
2013-02-25 17:14:00,76.9,72.4,29.77,SE,145,6.7,10.4,86,0.00,CLR,,0.01,WeatherDisplay:10.37,2013-02-25 22:14:00,
2013-02-25 17:19:00,77.0,72.5,29.77,South,183,5.9,10.4,86,0.00,CLR,,0.01,WeatherDisplay:10.37,2013-02-25 22:19:00,
2013-02-25 17:24:00,76.8,72.3,29.77,South,173,7.7,11.5,86,0.00,OVC,,0.01,WeatherDisplay:10.37,2013-02-25 22:24:00,
2013-02-25 17:29:00,76.6,72.1,29.77,SW,228,6.4,10.4,86,0.00,OVC,,0.01,WeatherDisplay:10.37,2013-02-25 22:29:00,
2013-02-25 17:34:00,76.6,72.1,29.77,SSE,156,5.9,6.9,86,0.00,OVC,,0.01,WeatherDisplay:10.37,2013-02-25 22:34:00,
2013-02-25 17:39:00,76.6,72.1,29.77,South,178,6.6,9.2,86,0.00,OVC,,0.01,WeatherDisplay:10.37,2013-02-25 22:39:00,
2013-02-25 17:44:00,76.5,72.0,29.77,SE,144,5.3,9.0,86,0.00,OVC,,0.01,WeatherDisplay:10.37,2013-02-25 22:44:00,
2013-02-25 17:49:00,76.5,72.0,29.77,SSW,195,4.8,7.0,86,0.00,OVC,,0.01,WeatherDisplay:10.37,2013-02-25 22:49:00,
2013-02-25 17:54:00,76.4,71.9,29.77,South,179,4.0,10.4,86,0.00,OVC,,0.01,WeatherDisplay:10.37,2013-02-25 22:54:00,
2013-02-25 17:59:00,76.3,71.8,29.77,SSE,150,4.2,6.9,86,0.00,OVC,,0.01,WeatherDisplay:10.37,2013-02-25 22:59:00,
2013-02-25 18:04:00,76.2,71.7,29.77,SE,135,7.6,9.2,86,0.00,OVC,,0.01,WeatherDisplay:10.37,2013-02-25 23:04:00,
2013-02-25 18:09:00,75.9,71.4,29.77,South,170,5.8,11.5,86,0.00,OVC,,0.01,WeatherDisplay:10.37,2013-02-25 23:09:00,
2013-02-25 18:14:00,75.7,71.2,29.77,SSW,194,8.4,10.4,86,0.00,OVC,,0.01,WeatherDisplay:10.37,2013-02-25 23:14:00,
2013-02-25 18:19:00,75.4,71.3,29.77,SE,141,4.6,8.1,87,0.00,OVC,,0.01,WeatherDisplay:10.37,2013-02-25 23:19:00,
2013-02-25 18:24:00,75.2,71.4,29.77,SSE,148,5.6,8.1,88,0.00,OVC,,0.01,WeatherDisplay:10.37,2013-02-25 23:24:00,
2013-02-25 18:29:00,75.1,71.6,29.78,South,191,6.1,9.0,89,0.00,OVC,,0.01,WeatherDisplay:10.37,2013-02-25 23:29:00,
2013-02-25 18:34:00,74.8,71.7,29.78,SSW,193,5.9,9.2,90,0.00,OVC,,0.01,WeatherDisplay:10.37,2013-02-25 23:34:00,
2013-02-25 18:39:00,74.6,71.5,29.78,SE,139,6.5,10.0,90,0.00,OVC,,0.01,WeatherDisplay:10.37,2013-02-25 23:39:00,
2013-02-25 18:44:00,74.5,71.7,29.77,SE,146,5.5,8.1,91,0.00,OVC,,0.01,WeatherDisplay:10.37,2013-02-25 23:44:00,
2013-02-25 18:49:00,74.4,71.6,29.78,SSW,198,5.8,5.8,91,0.00,OVC,,0.01,WeatherDisplay:10.37,2013-02-25 23:49:00,
2013-02-25 18:54:00,74.4,71.6,29.78,South,177,6.5,11.5,91,0.00,OVC,,0.01,WeatherDisplay:10.37,2013-02-25 23:54:00,
2013-02-25 18:59:00,74.3,71.5,29.78,South,190,5.0,8.1,91,0.00,OVC,,0.01,WeatherDisplay:10.37,2013-02-25 23:59:00,
2013-02-25 19:04:00,74.2,71.4,29.78,South,190,7.3,11.5,91,0.00,OVC,,0.01,WeatherDisplay:10.37,2013-02-26 00:04:00,
2013-02-25 19:09:00,74.2,71.4,29.77,SE,134,6.3,12.7,91,0.00,OVC,,0.01,WeatherDisplay:10.37,2013-02-26 00:09:00,
2013-02-25 19:14:00,74.2,71.4,29.77,SE,125,3.2,8.1,91,0.00,OVC,,0.01,WeatherDisplay:10.37,2013-02-26 00:14:00,
2013-02-25 19:19:00,74.2,71.1,29.77,South,184,3.7,9.2,90,0.00,OVC,,0.01,WeatherDisplay:10.37,2013-02-26 00:19:00,
2013-02-25 19:24:00,74.3,71.2,29.76,SE,126,3.8,5.0,90,0.00,OVC,,0.01,WeatherDisplay:10.37,2013-02-26 00:24:00,
2013-02-25 19:29:00,74.3,70.8,29.76,SSE,153,3.4,4.0,89,0.00,OVC,,0.01,WeatherDisplay:10.37,2013-02-26 00:29:00,
2013-02-25 19:34:00,74.4,70.9,29.76,ESE,114,2.9,4.6,89,0.00,OVC,,0.01,WeatherDisplay:10.37,2013-02-26 00:34:00,
2013-02-25 19:39:00,74.4,70.6,29.77,SE,131,2.0,3.5,88,0.00,OVC,,0.01,WeatherDisplay:10.37,2013-02-26 00:39:00,
2013-02-25 19:44:00,74.3,70.5,29.77,SE,146,2.6,4.6,88,0.00,OVC,,0.01,WeatherDisplay:10.37,2013-02-26 00:44:00,
2013-02-25 19:49:00,74.3,70.5,29.77,SE,136,0.4,1.1,88,0.00,OVC,,0.01,WeatherDisplay:10.37,2013-02-26 00:49:00,
2013-02-25 19:54:00,74.2,70.1,29.77,SE,124,0.5,2.3,87,0.00,OVC,,0.01,WeatherDisplay:10.37,2013-02-26 00:54:00,
2013-02-25 20:00:00,74.1,70.0,29.78,ESE,121,0.1,1.1,87,0.00,OVC,,0.01,WeatherDisplay:10.37,2013-02-26 01:00:00,
2013-02-25 20:05:00,74.0,69.9,29.78,East,99,0.3,1.0,87,0.00,OVC,,0.01,WeatherDisplay:10.37,2013-02-26 01:05:00,
2013-02-25 20:10:00,73.8,70.0,29.78,ENE,72,0.0,1.1,88,0.00,OVC,,0.01,WeatherDisplay:10.37,2013-02-26 01:10:00,
2013-02-25 20:15:00,73.7,69.9,29.78,ESE,113,0.2,1.1,88,0.00,OVC,,0.01,WeatherDisplay:10.37,2013-02-26 01:15:00,
2013-02-25 20:20:00,73.5,69.7,29.78,ESE,113,0.0,1.1,88,0.00,OVC,,0.01,WeatherDisplay:10.37,2013-02-26 01:20:00,
2013-02-25 20:25:00,73.3,69.9,29.78,ESE,115,0.0,0.0,89,0.00,CLR,,0.01,WeatherDisplay:10.37,2013-02-26 01:25:00,
2013-02-25 20:30:00,73.1,69.7,29.78,ESE,115,0.0,0.0,89,0.00,CLR,,0.01,WeatherDisplay:10.37,2013-02-26 01:30:00,
2013-02-25 20:35:00,72.8,69.7,29.78,ESE,115,0.0,0.0,90,0.00,CLR,,0.01,WeatherDisplay:10.37,2013-02-26 01:35:00,
2013-02-25 20:40:00,72.5,69.4,29.78,ESE,116,0.0,0.0,90,0.00,CLR,,0.01,WeatherDisplay:10.37,2013-02-26 01:40:00,
2013-02-25 20:45:00,72.4,69.6,29.79,SE,129,0.0,0.0,91,0.00,CLR,,0.01,WeatherDisplay:10.37,2013-02-26 01:45:00,
2013-02-25 20:50:00,72.3,69.5,29.79,SE,138,0.0,0.0,91,0.00,CLR,,0.01,WeatherDisplay:10.37,2013-02-26 01:50:00,
2013-02-25 20:55:00,72.1,69.3,29.79,SE,139,0.0,0.0,91,0.00,CLR,,0.01,WeatherDisplay:10.37,2013-02-26 01:55:00,
2013-02-25 21:00:00,72.0,69.5,29.79,SE,138,0.0,0.0,92,0.00,CLR,,0.01,WeatherDisplay:10.37,2013-02-26 02:00:00,
2013-02-25 21:05:00,71.9,69.4,29.79,SE,141,0.0,1.1,92,0.00,CLR,,0.01,WeatherDisplay:10.37,2013-02-26 02:05:00,
2013-02-25 21:10:00,72.0,69.5,29.79,SE,146,0.0,1.1,92,0.00,CLR,,0.01,WeatherDisplay:10.37,2013-02-26 02:10:00,
2013-02-25 21:15:00,71.9,69.4,29.79,SE,130,0.0,1.1,92,0.00,CLR,,0.01,WeatherDisplay:10.37,2013-02-26 02:15:00,
2013-02-25 21:20:00,71.9,69.4,29.79,ESE,121,0.3,1.1,92,0.00,CLR,,0.01,WeatherDisplay:10.37,2013-02-26 02:20:00,
2013-02-25 21:25:00,71.9,69.4,29.79,ESE,122,0.5,2.3,92,0.00,CLR,,0.01,WeatherDisplay:10.37,2013-02-26 02:25:00,
2013-02-25 21:30:00,72.0,69.9,29.79,ESE,119,1.2,3.5,93,0.00,CLR,,0.01,WeatherDisplay:10.37,2013-02-26 02:30:00,
2013-02-25 21:35:00,72.2,69.7,29.78,SSE,156,2.6,3.5,92,0.00,CLR,,0.01,WeatherDisplay:10.37,2013-02-26 02:35:00,
2013-02-25 21:40:00,72.2,69.7,29.78,SSE,148,2.4,3.5,92,0.00,CLR,,0.01,WeatherDisplay:10.37,2013-02-26 02:40:00,
2013-02-25 21:45:00,72.2,69.7,29.79,SE,146,2.7,4.0,92,0.00,CLR,,0.01,WeatherDisplay:10.37,2013-02-26 02:45:00,
2013-02-25 21:50:00,72.2,69.7,29.78,SE,134,2.8,3.5,92,0.00,CLR,,0.01,WeatherDisplay:10.37,2013-02-26 02:50:00,
2013-02-25 21:55:00,72.3,69.5,29.78,ESE,105,2.9,5.8,91,0.00,CLR,,0.01,WeatherDisplay:10.37,2013-02-26 02:55:00,
2013-02-25 22:00:00,72.3,69.5,29.77,ESE,117,2.9,5.8,91,0.00,CLR,,0.01,WeatherDisplay:10.37,2013-02-26 03:00:00,
2013-02-25 22:05:00,72.2,69.4,29.77,SSE,160,3.3,4.6,91,0.00,FEW,,0.01,WeatherDisplay:10.37,2013-02-26 03:05:00,
2013-02-25 22:10:00,72.2,69.4,29.78,SSE,156,2.5,4.6,91,0.00,FEW,,0.01,WeatherDisplay:10.37,2013-02-26 03:10:00,
2013-02-25 22:15:00,72.2,69.4,29.77,SSE,153,4.4,5.8,91,0.00,FEW,,0.01,WeatherDisplay:10.37,2013-02-26 03:15:00,
2013-02-25 22:20:00,72.2,69.7,29.77,SSE,156,3.6,5.8,92,0.00,FEW,,0.01,WeatherDisplay:10.37,2013-02-26 03:20:00,
2013-02-25 22:25:00,72.3,69.8,29.77,SE,132,4.7,8.1,92,0.00,FEW,,0.01,WeatherDisplay:10.37,2013-02-26 03:25:00,
2013-02-25 22:30:00,72.3,69.8,29.77,SSE,151,2.9,4.6,92,0.00,FEW,,0.01,WeatherDisplay:10.37,2013-02-26 03:30:00,
2013-02-25 22:35:00,72.4,69.9,29.77,SE,146,3.8,5.0,92,0.00,FEW,,0.01,WeatherDisplay:10.37,2013-02-26 03:35:00,
2013-02-25 22:40:00,72.4,69.9,29.78,South,186,4.0,5.8,92,0.00,FEW,,0.01,WeatherDisplay:10.37,2013-02-26 03:40:00,
2013-02-25 22:45:00,72.4,69.9,29.78,SE,129,3.8,5.8,92,0.00,FEW,,0.01,WeatherDisplay:10.37,2013-02-26 03:45:00,
2013-02-25 22:50:00,72.4,69.6,29.78,SSW,194,4.3,8.0,91,0.00,FEW,,0.01,WeatherDisplay:10.37,2013-02-26 03:50:00,
2013-02-25 22:55:00,72.4,69.6,29.78,SE,130,2.8,5.0,91,0.00,FEW,,0.01,WeatherDisplay:10.37,2013-02-26 03:55:00,
2013-02-25 23:00:00,72.5,69.4,29.78,East,84,3.2,4.6,90,0.00,FEW,,0.01,WeatherDisplay:10.37,2013-02-26 04:00:00,
2013-02-25 23:05:00,72.4,69.3,29.77,SE,135,3.7,6.9,90,0.00,CLR,,0.01,WeatherDisplay:10.37,2013-02-26 04:05:00,
2013-02-25 23:10:00,72.5,69.1,29.77,South,191,3.3,4.6,89,0.00,CLR,,0.01,WeatherDisplay:10.37,2013-02-26 04:10:00,
2013-02-25 23:15:00,72.6,69.2,29.78,SE,125,2.8,5.0,89,0.00,CLR,,0.01,WeatherDisplay:10.37,2013-02-26 04:15:00,
2013-02-25 23:20:00,72.6,69.2,29.77,SE,143,1.6,3.5,89,0.00,CLR,,0.01,WeatherDisplay:10.37,2013-02-26 04:20:00,
2013-02-25 23:25:00,72.7,69.3,29.77,SE,143,2.3,3.5,89,0.00,CLR,,0.01,WeatherDisplay:10.37,2013-02-26 04:25:00,
2013-02-25 23:30:00,72.6,69.2,29.78,SE,133,2.0,3.5,89,0.00,CLR,,0.01,WeatherDisplay:10.37,2013-02-26 04:30:00,
2013-02-25 23:35:00,72.6,69.2,29.78,SE,143,2.9,6.0,89,0.00,CLR,,0.01,WeatherDisplay:10.37,2013-02-26 04:35:00,
2013-02-25 23:40:00,72.7,69.6,29.77,SE,146,2.6,3.5,90,0.00,CLR,,0.01,WeatherDisplay:10.37,2013-02-26 04:40:00,
2013-02-25 23:45:00,72.7,69.6,29.77,SE,141,2.5,3.5,90,0.00,CLR,,0.01,WeatherDisplay:10.37,2013-02-26 04:45:00,
2013-02-25 23:50:00,72.7,69.6,29.77,SE,138,2.3,3.5,90,0.00,CLR,,0.01,WeatherDisplay:10.37,2013-02-26 04:50:00,
2013-02-25 23:55:00,72.7,69.9,29.77,ESE,111,2.1,3.5,91,0.00,CLR,,0.01,WeatherDisplay:10.37,2013-02-26 04:55:00,